createdAt,value
2022-08-17T00:03:05.939Z,8.63
2022-08-17T00:07:17.541Z,10.25
2022-08-17T00:11:36.545Z,7.15
2022-08-17T00:15:49.530Z,10.07
2022-08-17T00:20:01.170Z,7.25
2022-08-17T00:24:13.905Z,10.00
2022-08-17T00:28:25.564Z,8.35
2022-08-17T00:33:15.899Z,8.07
2022-08-17T00:37:11.378Z,8.15
2022-08-17T00:41:26.124Z,8.05
2022-08-17T00:45:37.771Z,7.75
2022-08-17T00:49:49.404Z,7.85
2022-08-17T00:54:20.300Z,7.28
2022-08-17T00:58:36.453Z,8.10
2022-08-17T01:02:48.947Z,9.85
2022-08-17T01:07:03.386Z,8.45
2022-08-17T01:11:15.074Z,7.60
2022-08-17T01:15:27.172Z,7.72
2022-08-17T01:19:41.964Z,7.75
2022-08-17T01:23:53.754Z,8.18
2022-08-17T01:28:06.000Z,10.07
2022-08-17T01:32:19.338Z,7.75
2022-08-17T01:36:30.926Z,7.55
2022-08-17T01:40:57.677Z,7.88
2022-08-17T01:45:17.591Z,7.65
2022-08-17T01:49:29.440Z,8.32
2022-08-17T01:53:43.456Z,7.03
2022-08-17T01:57:55.196Z,7.43
2022-08-17T02:02:07.659Z,8.60
2022-08-17T02:06:27.822Z,7.43
2022-08-17T02:10:39.926Z,7.18
2022-08-17T02:14:58.516Z,7.22
2022-08-17T02:19:16.469Z,8.63
2022-08-17T02:23:32.273Z,10.20
2022-08-17T02:27:44.145Z,10.07
2022-08-17T02:31:58.026Z,10.85
2022-08-17T02:36:11.099Z,10.10
2022-08-17T02:40:35.993Z,10.20
2022-08-17T02:44:48.086Z,10.32
2022-08-17T02:48:59.902Z,11.05
2022-08-17T02:53:11.782Z,10.90
2022-08-17T02:57:24.185Z,10.00
2022-08-17T03:01:35.883Z,9.68
2022-08-17T03:05:49.466Z,10.07
2022-08-17T03:10:01.154Z,9.90
2022-08-17T03:14:12.779Z,9.23
2022-08-17T03:18:26.317Z,9.90
2022-08-17T03:22:47.978Z,9.80
2022-08-17T03:27:05.156Z,10.20
2022-08-17T03:31:18.340Z,10.13
2022-08-17T03:35:33.669Z,12.68
2022-08-17T03:39:45.281Z,10.10
2022-08-17T03:43:57.056Z,10.02
2022-08-17T03:48:28.394Z,8.50
2022-08-17T03:52:58.817Z,9.05
2022-08-17T03:57:11.617Z,9.27
2022-08-17T04:01:23.388Z,9.48
2022-08-17T04:05:35.114Z,9.93
2022-08-17T04:09:46.902Z,9.50
2022-08-17T04:13:58.753Z,9.50
2022-08-17T04:18:11.045Z,9.27
2022-08-17T04:22:32.656Z,11.55
2022-08-17T04:26:50.582Z,9.15
2022-08-17T04:31:06.112Z,9.50
2022-08-17T04:35:31.569Z,9.20
2022-08-17T04:40:04.516Z,9.07
2022-08-17T04:44:36.814Z,8.50
2022-08-17T04:48:50.704Z,9.38
2022-08-17T04:53:02.534Z,8.05
2022-08-17T04:57:14.197Z,7.72
2022-08-17T05:01:28.477Z,10.23
2022-08-17T05:05:49.476Z,7.07
2022-08-17T05:10:01.197Z,8.93
2022-08-17T05:14:13.937Z,8.50
2022-08-17T05:18:26.773Z,9.38
2022-08-17T05:22:49.372Z,8.35
2022-08-17T05:27:06.010Z,8.27
2022-08-17T05:31:18.456Z,7.93
2022-08-17T05:35:33.088Z,9.00
2022-08-17T05:39:44.728Z,6.78
2022-08-17T05:43:56.760Z,7.72
2022-08-17T05:48:10.210Z,7.57
2022-08-17T05:52:40.539Z,7.47
2022-08-17T05:56:58.240Z,7.30
2022-08-17T06:01:33.519Z,9.50
2022-08-17T06:06:03.834Z,6.97
2022-08-17T06:10:24.789Z,7.88
2022-08-17T06:14:39.290Z,7.93
2022-08-17T06:19:00.935Z,8.43
2022-08-17T06:23:18.271Z,8.60
2022-08-17T06:27:45.849Z,8.52
2022-08-17T06:31:57.658Z,17.45
2022-08-17T06:36:24.693Z,9.15
2022-08-17T06:41:18.946Z,11.02
2022-08-17T06:45:35.725Z,10.73
2022-08-17T06:49:55.737Z,10.00
2022-08-17T06:54:15.198Z,10.15
2022-08-17T06:58:31.313Z,9.75
2022-08-17T07:02:55.545Z,11.82
2022-08-17T07:07:28.838Z,11.05
2022-08-17T07:12:00.683Z,10.65
2022-08-17T07:16:19.564Z,12.13
2022-08-17T07:20:31.423Z,13.13
2022-08-17T07:24:53.409Z,12.98
2022-08-17T07:29:05.960Z,12.35
2022-08-17T07:33:30.237Z,13.88
2022-08-17T07:37:54.026Z,13.88
2022-08-17T07:42:05.763Z,14.27
2022-08-17T07:46:41.901Z,16.00
2022-08-17T07:50:53.642Z,14.38
2022-08-17T07:55:30.403Z,13.27
2022-08-17T08:00:03.533Z,12.82
2022-08-17T08:04:59.687Z,13.95
2022-08-17T08:09:32.709Z,14.40
2022-08-17T08:13:45.779Z,15.18
2022-08-17T08:18:00.423Z,14.23
2022-08-17T08:22:22.079Z,14.10
2022-08-17T08:26:43.439Z,14.90
2022-08-17T08:31:06.581Z,14.50
2022-08-17T08:35:37.283Z,14.30
2022-08-17T08:39:58.128Z,14.35
2022-08-17T08:44:18.899Z,13.32
2022-08-17T08:49:11.829Z,13.60
2022-08-17T08:53:58.424Z,13.20
2022-08-17T08:58:32.038Z,12.93
2022-08-17T09:02:55.770Z,13.35
2022-08-17T09:07:29.666Z,12.43
2022-08-17T09:12:08.425Z,13.73
2022-08-17T09:16:29.737Z,13.68
2022-08-17T09:20:57.155Z,12.23
2022-08-17T09:25:13.457Z,12.25
2022-08-17T09:29:29.465Z,13.00
2022-08-17T09:33:45.953Z,12.35
2022-08-17T09:38:06.705Z,12.45
2022-08-17T09:42:35.954Z,11.02
2022-08-17T09:47:03.790Z,9.73
2022-08-17T09:51:22.064Z,10.73
2022-08-17T09:56:15.432Z,10.68
2022-08-17T10:00:35.053Z,10.45
2022-08-17T10:05:08.802Z,9.88
2022-08-17T10:09:41.862Z,10.43
2022-08-17T10:14:38.036Z,9.45
2022-08-17T10:19:13.810Z,11.35
2022-08-17T10:23:47.950Z,10.27
2022-08-17T10:28:06.517Z,10.48
2022-08-17T10:32:27.843Z,9.32
2022-08-17T10:36:54.679Z,9.70
2022-08-17T10:41:15.247Z,14.65
2022-08-17T10:45:47.040Z,10.30
2022-08-17T10:50:37.958Z,10.15
2022-08-17T10:54:58.212Z,11.50
2022-08-17T10:59:36.233Z,9.13
2022-08-17T11:03:55.039Z,10.00
2022-08-17T11:08:36.194Z,10.57
2022-08-17T11:13:01.132Z,11.15
2022-08-17T11:17:45.680Z,11.77
2022-08-17T11:22:34.771Z,10.85
2022-08-17T11:27:12.333Z,11.88
2022-08-17T11:31:41.686Z,11.68
2022-08-17T11:36:25.154Z,10.40
2022-08-17T11:41:15.777Z,10.93
2022-08-17T11:45:49.825Z,11.15
2022-08-17T11:50:48.902Z,12.60
2022-08-17T11:55:17.962Z,11.15
2022-08-17T11:59:36.406Z,11.65
2022-08-17T12:03:57.721Z,12.20
2022-08-17T12:08:23.083Z,11.48
2022-08-17T12:12:35.902Z,11.15
2022-08-17T12:17:01.974Z,11.95
2022-08-17T12:21:22.265Z,11.55
2022-08-17T12:26:09.400Z,12.43
2022-08-17T12:30:22.179Z,11.38
2022-08-17T12:34:39.975Z,11.88
2022-08-17T12:39:12.771Z,11.90
2022-08-17T12:43:31.177Z,16.77
2022-08-17T12:47:43.412Z,12.68
2022-08-17T12:52:12.630Z,13.88
2022-08-17T12:56:24.270Z,11.60
2022-08-17T13:00:41.137Z,11.63
2022-08-17T13:05:01.050Z,12.82
2022-08-17T13:09:19.592Z,11.52
2022-08-17T13:13:37.977Z,11.23
2022-08-17T13:17:59.610Z,12.68
2022-08-17T13:22:12.653Z,12.75
2022-08-17T13:26:35.235Z,12.43
2022-08-17T13:30:47.730Z,13.63
2022-08-17T13:35:12.959Z,13.35
2022-08-17T13:39:27.324Z,13.23
2022-08-17T13:43:49.555Z,15.98
2022-08-17T13:48:19.729Z,13.80
2022-08-17T13:52:37.813Z,14.57
2022-08-17T13:57:07.720Z,13.95
2022-08-17T14:01:32.719Z,13.32
2022-08-17T14:05:46.016Z,15.07
2022-08-17T14:10:01.382Z,14.50
2022-08-17T14:14:14.125Z,15.30
2022-08-17T14:18:34.262Z,15.90
2022-08-17T14:22:58.117Z,15.95
2022-08-17T14:27:09.926Z,13.98
2022-08-17T14:31:22.028Z,15.10
2022-08-17T14:35:34.439Z,15.55
2022-08-17T14:39:46.292Z,14.82
2022-08-17T14:43:57.995Z,15.43
2022-08-17T14:48:10.563Z,17.30
2022-08-17T14:52:22.805Z,15.40
2022-08-17T14:56:37.847Z,16.05
2022-08-17T15:00:51.003Z,15.02
2022-08-17T15:05:05.905Z,15.32
2022-08-17T15:09:17.851Z,13.98
2022-08-17T15:13:30.422Z,15.15
2022-08-17T15:17:55.133Z,18.52
2022-08-17T15:22:16.013Z,16.27
2022-08-17T15:26:28.418Z,15.38
2022-08-17T15:30:43.045Z,16.15
2022-08-17T15:35:00.223Z,16.90
2022-08-17T15:39:11.938Z,15.98
2022-08-17T15:43:28.298Z,16.60
2022-08-17T15:47:40.465Z,15.43
2022-08-17T15:51:52.154Z,15.52
2022-08-17T15:56:05.409Z,15.73
2022-08-17T16:00:17.474Z,15.55
2022-08-17T16:04:30.722Z,13.98
2022-08-17T16:08:46.123Z,15.35
2022-08-17T16:12:58.642Z,15.07
2022-08-17T16:17:39.810Z,14.98
2022-08-17T16:21:42.755Z,15.88
2022-08-17T16:25:54.803Z,15.52
2022-08-17T16:30:07.586Z,17.55
2022-08-17T16:34:20.168Z,15.55
2022-08-17T16:38:31.865Z,14.23
2022-08-17T16:42:46.742Z,15.55
2022-08-17T16:47:00.948Z,16.00
2022-08-17T16:51:12.554Z,14.70
2022-08-17T16:55:24.111Z,14.93
2022-08-17T16:59:41.031Z,14.20
2022-08-17T17:03:59.543Z,12.77
2022-08-17T17:08:25.676Z,13.68
2022-08-17T17:13:02.781Z,13.88
2022-08-17T17:17:32.775Z,14.00
2022-08-17T17:21:56.547Z,14.02
2022-08-17T17:26:20.474Z,14.43
2022-08-17T17:30:55.067Z,13.77
2022-08-17T17:35:17.410Z,13.25
2022-08-17T17:39:48.896Z,14.50
2022-08-17T17:44:12.194Z,15.18
2022-08-17T17:48:24.293Z,14.65
2022-08-17T17:52:53.264Z,14.00
2022-08-17T17:57:21.275Z,13.60
2022-08-17T18:02:03.642Z,13.10
2022-08-17T18:06:45.257Z,13.50
2022-08-17T18:11:06.557Z,13.93
2022-08-17T18:15:37.486Z,13.55
2022-08-17T18:19:49.332Z,12.55
2022-08-17T18:24:03.106Z,14.07
2022-08-17T18:28:39.679Z,13.90
2022-08-17T18:32:51.210Z,14.20
2022-08-17T18:37:07.860Z,12.93
2022-08-17T18:41:25.261Z,14.45
2022-08-17T18:45:50.105Z,18.70
2022-08-17T18:50:25.809Z,19.88
2022-08-17T18:54:37.750Z,19.42
2022-08-17T18:59:06.187Z,20.55
2022-08-17T19:03:20.716Z,19.25
2022-08-17T19:07:52.703Z,19.35
2022-08-17T19:12:10.393Z,21.67
2022-08-17T19:16:44.949Z,18.60
2022-08-17T19:21:05.801Z,19.42
2022-08-17T19:25:23.231Z,19.42
2022-08-17T19:29:38.397Z,19.70
2022-08-17T19:33:50.442Z,20.77
2022-08-17T19:39:17.605Z,19.88
2022-08-17T19:44:32.033Z,22.40
2022-08-17T19:49:32.945Z,21.63
2022-08-17T20:06:14.011Z,22.77
2022-08-17T20:11:09.762Z,25.55
2022-08-17T20:15:39.475Z,24.60
2022-08-17T20:20:06.505Z,24.75
2022-08-17T20:24:46.171Z,25.08
2022-08-17T20:29:20.012Z,24.70
2022-08-17T20:33:49.853Z,26.77
2022-08-17T20:38:08.418Z,24.55
2022-08-17T20:42:20.102Z,23.83
2022-08-17T20:46:37.913Z,25.13
2022-08-17T20:51:18.326Z,25.92
2022-08-17T20:55:52.602Z,24.95
2022-08-17T21:00:35.093Z,26.60
2022-08-17T21:04:53.864Z,26.52
2022-08-17T21:09:32.703Z,26.95
2022-08-17T21:14:12.683Z,28.15
2022-08-17T21:18:32.896Z,26.92
2022-08-17T21:23:11.070Z,24.65
2022-08-17T21:27:48.554Z,27.42
2022-08-17T21:32:02.021Z,28.55
2022-08-17T21:36:14.148Z,27.05
2022-08-17T21:40:29.069Z,26.55
2022-08-17T21:44:49.077Z,27.00
2022-08-17T21:49:13.459Z,27.98
2022-08-17T21:53:33.765Z,28.38
2022-08-17T21:57:52.963Z,27.40
2022-08-17T22:02:21.356Z,26.02
2022-08-17T22:06:39.173Z,25.13
2022-08-17T22:11:00.624Z,22.38
2022-08-17T22:15:17.666Z,20.23
2022-08-17T22:19:29.422Z,21.33
2022-08-17T22:24:03.983Z,19.40
2022-08-17T22:28:39.877Z,18.73
2022-08-17T22:32:51.575Z,19.80
2022-08-17T22:37:27.991Z,18.65
2022-08-17T22:41:41.516Z,16.55
2022-08-17T22:45:56.024Z,15.13
2022-08-17T22:50:23.165Z,13.52
2022-08-17T22:54:53.347Z,13.88
2022-08-17T22:59:20.570Z,13.13
2022-08-17T23:03:32.212Z,12.57
2022-08-17T23:07:46.657Z,14.82
2022-08-17T23:11:58.971Z,13.35
2022-08-17T23:16:10.588Z,13.88
2022-08-17T23:20:22.214Z,12.93
2022-08-17T23:24:42.038Z,13.43
2022-08-17T23:28:54.039Z,12.73
2022-08-17T23:33:11.556Z,15.73
2022-08-17T23:37:23.255Z,14.25
2022-08-17T23:41:38.884Z,14.48
2022-08-17T23:45:50.531Z,15.60
2022-08-17T23:50:05.459Z,14.35
2022-08-17T23:54:24.637Z,15.50
2022-08-17T23:58:38.476Z,14.73
